메인 페이지
METAR-TAF:

METAR-TAF

공항 :

토카트, 터키

위도: 40-18N, 경도: 036-34E, 고도: 608m

현재 날씨관측

예보는 5 시간 53분 전, 12:50시(UTC)에 발표되었습니다.
14kt
온도 13°C
습도 51%
기압 1011 hPa
시정 10km 이상
고도 3300ft 상공 구름 많음

METAR: LTAW 241250Z 35014KT 9999 BKN033 13/03 Q1011

시각: 21:43 (18:43 UTC)

예보

예보는 5 시간 3분 전, 13:40시(UTC)에 발표되었습니다.
예보 대상 시간: 24일 15시부터 24일 24시까지 (UTC)
북서15kt
시정 10km 이상
고도 3300ft 상공 구름 많음
고도 9000ft 상공 구름 많음
전환 중
24일 15시부터 24일 17시까지 (UTC)
여러 방향의 바람 2kt
일시적
24일 17시부터 24일 21시까지 (UTC)
약한소나기

TAF: LTAW 241340Z 2415/2424 32015KT 9999 BKN033 BKN090 BECMG 2415/2417 VRB02KT TEMPO 2417/2421 -SHRA

4,000개 이상의 공항 관측 자료 및 예보 (METAR 및 TAF 보고).

지도상에서 검색 가능한 기상관측소가 노란 점과 빨간 점으로 표시되어 있습니다.

기상관측소 명을 보려면 표시 위로 마우스를 이동하세요.

날씨 관측과 예보를 보려면 클릭하세요.

지도 변경 : 확대하려면 엑스 표시가 있는 녹색 버튼, 축소하려면 빼기 표시가 있는 녹색 버튼, 다음 페이지의 지도를 보려면 녹색 화살표를 클릭하세요.


METAR-TAF: